sensor_id;sensor_type;location;lat;lon;timestamp;P1;durP1;ratioP1;P2;durP2;ratioP2
51981;SDS011;37998;53.416;6.730;2022-08-11T00:01:26;6.72;;;2.70;;
51981;SDS011;37998;53.416;6.730;2022-08-11T00:03:56;8.52;;;2.97;;
51981;SDS011;37998;53.416;6.730;2022-08-11T00:06:25;4.45;;;2.63;;
51981;SDS011;37998;53.416;6.730;2022-08-11T00:08:53;5.80;;;2.60;;
51981;SDS011;37998;53.416;6.730;2022-08-11T00:11:20;4.38;;;2.63;;
51981;SDS011;37998;53.416;6.730;2022-08-11T00:13:55;5.22;;;3.15;;
51981;SDS011;37998;53.416;6.730;2022-08-11T00:16:22;14.68;;;13.23;;
51981;SDS011;37998;53.416;6.730;2022-08-11T00:18:51;4.70;;;3.00;;
51981;SDS011;37998;53.416;6.730;2022-08-11T00:21:19;5.20;;;3.00;;
51981;SDS011;37998;53.416;6.730;2022-08-11T00:23:52;4.15;;;2.70;;
51981;SDS011;37998;53.416;6.730;2022-08-11T00:26:21;8.27;;;3.00;;
51981;SDS011;37998;53.416;6.730;2022-08-11T00:28:48;5.28;;;3.25;;
51981;SDS011;37998;53.416;6.730;2022-08-11T00:31:21;4.50;;;2.67;;
51981;SDS011;37998;53.416;6.730;2022-08-11T00:33:57;6.22;;;3.00;;
51981;SDS011;37998;53.416;6.730;2022-08-11T00:36:26;6.03;;;3.13;;
51981;SDS011;37998;53.416;6.730;2022-08-11T00:39:13;5.72;;;3.28;;
51981;SDS011;37998;53.416;6.730;2022-08-11T00:41:57;4.88;;;2.88;;
51981;SDS011;37998;53.416;6.730;2022-08-11T00:48:04;3.75;;;2.90;;
51981;SDS011;37998;53.416;6.730;2022-08-11T01:06:50;7.60;;;3.72;;
51981;SDS011;37998;53.416;6.730;2022-08-11T01:23:35;9.52;;;4.20;;
51981;SDS011;37998;53.416;6.730;2022-08-11T01:48:12;8.48;;;3.53;;
51981;SDS011;37998;53.416;6.730;2022-08-11T01:59:15;5.65;;;3.83;;
51981;SDS011;37998;53.416;6.730;2022-08-11T02:09:54;7.30;;;4.28;;
51981;SDS011;37998;53.416;6.730;2022-08-11T02:13:00;12.30;;;4.72;;
51981;SDS011;37998;53.416;6.730;2022-08-11T02:15:43;9.20;;;4.80;;
51981;SDS011;37998;53.416;6.730;2022-08-11T02:21:41;12.90;;;4.53;;
51981;SDS011;37998;53.416;6.730;2022-08-11T02:24:40;11.32;;;5.15;;
51981;SDS011;37998;53.416;6.730;2022-08-11T02:27:23;9.52;;;4.97;;
51981;SDS011;37998;53.416;6.730;2022-08-11T02:30:05;14.48;;;5.43;;
51981;SDS011;37998;53.416;6.730;2022-08-11T02:32:49;15.88;;;5.72;;
51981;SDS011;37998;53.416;6.730;2022-08-11T02:38:32;14.10;;;5.28;;
51981;SDS011;37998;53.416;6.730;2022-08-11T02:46:58;13.85;;;5.47;;
51981;SDS011;37998;53.416;6.730;2022-08-11T02:55:02;11.73;;;5.47;;
51981;SDS011;37998;53.416;6.730;2022-08-11T03:00:23;8.45;;;5.50;;
51981;SDS011;37998;53.416;6.730;2022-08-11T03:16:36;16.92;;;6.55;;
51981;SDS011;37998;53.416;6.730;2022-08-11T03:19:12;12.55;;;6.40;;
51981;SDS011;37998;53.416;6.730;2022-08-11T03:21:58;13.60;;;6.80;;
51981;SDS011;37998;53.416;6.730;2022-08-11T03:24:48;10.07;;;6.88;;
51981;SDS011;37998;53.416;6.730;2022-08-11T03:30:13;12.93;;;6.88;;
51981;SDS011;37998;53.416;6.730;2022-08-11T03:36:16;9.82;;;7.00;;
51981;SDS011;37998;53.416;6.730;2022-08-11T03:44:22;11.98;;;8.00;;
51981;SDS011;37998;53.416;6.730;2022-08-11T03:49:56;10.50;;;6.50;;
51981;SDS011;37998;53.416;6.730;2022-08-11T03:52:47;12.90;;;7.28;;
51981;SDS011;37998;53.416;6.730;2022-08-11T03:55:49;12.95;;;6.55;;
51981;SDS011;37998;53.416;6.730;2022-08-11T04:25:28;8.07;;;6.70;;
51981;SDS011;37998;53.416;6.730;2022-08-11T04:31:36;10.20;;;6.20;;
51981;SDS011;37998;53.416;6.730;2022-08-11T04:37:11;11.15;;;6.43;;
51981;SDS011;37998;53.416;6.730;2022-08-11T04:40:08;7.78;;;6.40;;
51981;SDS011;37998;53.416;6.730;2022-08-11T04:48:20;10.02;;;6.65;;
51981;SDS011;37998;53.416;6.730;2022-08-11T04:51:35;8.15;;;6.80;;
51981;SDS011;37998;53.416;6.730;2022-08-11T04:54:52;9.77;;;7.07;;
51981;SDS011;37998;53.416;6.730;2022-08-11T05:01:22;12.73;;;7.30;;
51981;SDS011;37998;53.416;6.730;2022-08-11T05:12:40;9.60;;;7.20;;
51981;SDS011;37998;53.416;6.730;2022-08-11T05:18:47;11.15;;;7.22;;
51981;SDS011;37998;53.416;6.730;2022-08-11T05:21:33;11.95;;;7.20;;
51981;SDS011;37998;53.416;6.730;2022-08-11T05:24:20;13.82;;;7.53;;
51981;SDS011;37998;53.416;6.730;2022-08-11T05:27:13;11.05;;;7.72;;
51981;SDS011;37998;53.416;6.730;2022-08-11T05:30:03;14.52;;;7.57;;
51981;SDS011;37998;53.416;6.730;2022-08-11T05:32:56;9.35;;;7.80;;
51981;SDS011;37998;53.416;6.730;2022-08-11T05:35:46;10.85;;;8.05;;
51981;SDS011;37998;53.416;6.730;2022-08-11T05:38:18;10.05;;;8.05;;
51981;SDS011;37998;53.416;6.730;2022-08-11T05:41:11;10.65;;;8.13;;
51981;SDS011;37998;53.416;6.730;2022-08-11T05:43:59;8.30;;;7.40;;
51981;SDS011;37998;53.416;6.730;2022-08-11T05:46:45;9.93;;;7.18;;
51981;SDS011;37998;53.416;6.730;2022-08-11T05:49:30;10.02;;;7.35;;
51981;SDS011;37998;53.416;6.730;2022-08-11T05:52:26;9.15;;;7.55;;
51981;SDS011;37998;53.416;6.730;2022-08-11T05:55:12;14.35;;;7.93;;
51981;SDS011;37998;53.416;6.730;2022-08-11T05:58:04;11.95;;;7.38;;
51981;SDS011;37998;53.416;6.730;2022-08-11T06:00:40;10.90;;;7.80;;
51981;SDS011;37998;53.416;6.730;2022-08-11T06:03:10;11.82;;;7.35;;
51981;SDS011;37998;53.416;6.730;2022-08-11T06:05:46;9.35;;;7.35;;
51981;SDS011;37998;53.416;6.730;2022-08-11T06:08:12;9.02;;;7.68;;
51981;SDS011;37998;53.416;6.730;2022-08-11T06:10:39;10.50;;;7.15;;
51981;SDS011;37998;53.416;6.730;2022-08-11T06:13:07;11.55;;;7.07;;
51981;SDS011;37998;53.416;6.730;2022-08-11T06:15:42;8.73;;;7.32;;
51981;SDS011;37998;53.416;6.730;2022-08-11T06:18:10;11.60;;;7.60;;
51981;SDS011;37998;53.416;6.730;2022-08-11T06:20:47;9.68;;;6.97;;
51981;SDS011;37998;53.416;6.730;2022-08-11T06:23:19;8.02;;;7.22;;
51981;SDS011;37998;53.416;6.730;2022-08-11T06:25:47;9.73;;;6.68;;
51981;SDS011;37998;53.416;6.730;2022-08-11T06:28:15;8.88;;;6.95;;
51981;SDS011;37998;53.416;6.730;2022-08-11T06:30:46;9.75;;;6.78;;
51981;SDS011;37998;53.416;6.730;2022-08-11T06:33:17;7.28;;;6.53;;
51981;SDS011;37998;53.416;6.730;2022-08-11T06:36:04;9.90;;;6.82;;
51981;SDS011;37998;53.416;6.730;2022-08-11T06:42:03;9.18;;;6.38;;
51981;SDS011;37998;53.416;6.730;2022-08-11T06:44:42;9.20;;;6.72;;
51981;SDS011;37998;53.416;6.730;2022-08-11T06:47:12;8.75;;;6.45;;
51981;SDS011;37998;53.416;6.730;2022-08-11T06:49:43;11.90;;;7.15;;
51981;SDS011;37998;53.416;6.730;2022-08-11T06:52:29;8.75;;;6.65;;
51981;SDS011;37998;53.416;6.730;2022-08-11T06:55:04;13.77;;;6.10;;
51981;SDS011;37998;53.416;6.730;2022-08-11T06:57:36;7.05;;;6.07;;
51981;SDS011;37998;53.416;6.730;2022-08-11T07:00:23;10.77;;;5.70;;
51981;SDS011;37998;53.416;6.730;2022-08-11T07:05:49;7.60;;;5.35;;
51981;SDS011;37998;53.416;6.730;2022-08-11T07:14:34;7.90;;;5.47;;
51981;SDS011;37998;53.416;6.730;2022-08-11T07:17:33;8.48;;;4.65;;
51981;SDS011;37998;53.416;6.730;2022-08-11T07:20:04;8.60;;;4.90;;
51981;SDS011;37998;53.416;6.730;2022-08-11T07:23:00;6.05;;;4.00;;
51981;SDS011;37998;53.416;6.730;2022-08-11T07:25:47;5.93;;;4.60;;
51981;SDS011;37998;53.416;6.730;2022-08-11T07:28:39;8.70;;;4.80;;
51981;SDS011;37998;53.416;6.730;2022-08-11T07:34:31;9.90;;;5.15;;
51981;SDS011;37998;53.416;6.730;2022-08-11T07:37:03;9.82;;;4.75;;
51981;SDS011;37998;53.416;6.730;2022-08-11T07:39:35;6.68;;;4.47;;
51981;SDS011;37998;53.416;6.730;2022-08-11T07:42:07;7.32;;;4.50;;
51981;SDS011;37998;53.416;6.730;2022-08-11T07:44:34;5.68;;;4.65;;
51981;SDS011;37998;53.416;6.730;2022-08-11T07:47:20;5.80;;;4.88;;
51981;SDS011;37998;53.416;6.730;2022-08-11T07:50:07;6.88;;;4.75;;
51981;SDS011;37998;53.416;6.730;2022-08-11T07:52:52;8.45;;;4.78;;
51981;SDS011;37998;53.416;6.730;2022-08-11T07:55:19;6.80;;;4.40;;
51981;SDS011;37998;53.416;6.730;2022-08-11T07:57:46;4.95;;;3.70;;
51981;SDS011;37998;53.416;6.730;2022-08-11T08:00:35;6.47;;;3.95;;
51981;SDS011;37998;53.416;6.730;2022-08-11T08:03:26;5.20;;;4.35;;
51981;SDS011;37998;53.416;6.730;2022-08-11T08:06:12;5.32;;;3.90;;
51981;SDS011;37998;53.416;6.730;2022-08-11T08:08:58;7.03;;;4.28;;
51981;SDS011;37998;53.416;6.730;2022-08-11T08:11:43;6.43;;;3.75;;
51981;SDS011;37998;53.416;6.730;2022-08-11T08:14:29;6.47;;;4.13;;
51981;SDS011;37998;53.416;6.730;2022-08-11T08:17:14;6.40;;;3.50;;
51981;SDS011;37998;53.416;6.730;2022-08-11T08:19:59;6.15;;;3.42;;
51981;SDS011;37998;53.416;6.730;2022-08-11T08:22:25;4.72;;;3.55;;
51981;SDS011;37998;53.416;6.730;2022-08-11T08:24:51;9.27;;;3.42;;
51981;SDS011;37998;53.416;6.730;2022-08-11T08:27:17;3.22;;;2.92;;
51981;SDS011;37998;53.416;6.730;2022-08-11T08:29:44;4.82;;;2.60;;
51981;SDS011;37998;53.416;6.730;2022-08-11T08:32:29;3.90;;;1.88;;
51981;SDS011;37998;53.416;6.730;2022-08-11T08:34:56;3.20;;;2.53;;
51981;SDS011;37998;53.416;6.730;2022-08-11T08:37:23;8.60;;;2.80;;
51981;SDS011;37998;53.416;6.730;2022-08-11T08:39:50;2.90;;;2.50;;
51981;SDS011;37998;53.416;6.730;2022-08-11T08:42:17;4.60;;;2.47;;
51981;SDS011;37998;53.416;6.730;2022-08-11T08:44:49;6.13;;;2.88;;
51981;SDS011;37998;53.416;6.730;2022-08-11T08:47:29;5.03;;;3.05;;
51981;SDS011;37998;53.416;6.730;2022-08-11T08:49:59;3.90;;;3.28;;
51981;SDS011;37998;53.416;6.730;2022-08-11T08:52:29;5.35;;;3.38;;
51981;SDS011;37998;53.416;6.730;2022-08-11T08:55:02;2.95;;;2.20;;
51981;SDS011;37998;53.416;6.730;2022-08-11T08:57:30;3.42;;;2.20;;
51981;SDS011;37998;53.416;6.730;2022-08-11T08:59:57;6.10;;;1.90;;
51981;SDS011;37998;53.416;6.730;2022-08-11T09:02:25;6.57;;;2.50;;
51981;SDS011;37998;53.416;6.730;2022-08-11T09:04:52;2.83;;;2.20;;
51981;SDS011;37998;53.416;6.730;2022-08-11T09:07:19;5.32;;;2.13;;
51981;SDS011;37998;53.416;6.730;2022-08-11T09:09:48;1.83;;;1.73;;
51981;SDS011;37998;53.416;6.730;2022-08-11T09:12:17;5.53;;;1.90;;
51981;SDS011;37998;53.416;6.730;2022-08-11T09:14:45;2.38;;;1.55;;
51981;SDS011;37998;53.416;6.730;2022-08-11T09:17:28;2.78;;;1.70;;
51981;SDS011;37998;53.416;6.730;2022-08-11T09:20:07;3.83;;;2.30;;
51981;SDS011;37998;53.416;6.730;2022-08-11T09:22:37;2.60;;;1.60;;
51981;SDS011;37998;53.416;6.730;2022-08-11T09:25:25;3.15;;;1.80;;
51981;SDS011;37998;53.416;6.730;2022-08-11T09:28:13;5.10;;;2.70;;
51981;SDS011;37998;53.416;6.730;2022-08-11T09:30:41;1.52;;;1.42;;
51981;SDS011;37998;53.416;6.730;2022-08-11T09:33:08;3.47;;;1.70;;
51981;SDS011;37998;53.416;6.730;2022-08-11T09:35:37;2.40;;;1.45;;
51981;SDS011;37998;53.416;6.730;2022-08-11T09:38:07;4.70;;;1.95;;
51981;SDS011;37998;53.416;6.730;2022-08-11T09:40:54;4.00;;;1.40;;
51981;SDS011;37998;53.416;6.730;2022-08-11T09:43:21;5.32;;;1.67;;
51981;SDS011;37998;53.416;6.730;2022-08-11T09:46:07;4.95;;;1.20;;
51981;SDS011;37998;53.416;6.730;2022-08-11T09:48:43;2.30;;;1.50;;
51981;SDS011;37998;53.416;6.730;2022-08-11T09:51:10;2.85;;;1.60;;
51981;SDS011;37998;53.416;6.730;2022-08-11T09:53:38;4.75;;;1.80;;
51981;SDS011;37998;53.416;6.730;2022-08-11T09:56:15;5.03;;;1.67;;
51981;SDS011;37998;53.416;6.730;2022-08-11T09:59:01;4.53;;;1.30;;
51981;SDS011;37998;53.416;6.730;2022-08-11T10:01:36;3.65;;;1.73;;
51981;SDS011;37998;53.416;6.730;2022-08-11T10:04:30;1.73;;;1.10;;
51981;SDS011;37998;53.416;6.730;2022-08-11T10:06:59;3.92;;;1.30;;
51981;SDS011;37998;53.416;6.730;2022-08-11T10:09:37;6.20;;;2.10;;
51981;SDS011;37998;53.416;6.730;2022-08-11T10:12:19;7.20;;;1.42;;
51981;SDS011;37998;53.416;6.730;2022-08-11T10:14:49;2.88;;;1.30;;
51981;SDS011;37998;53.416;6.730;2022-08-11T10:17:38;5.65;;;1.50;;
51981;SDS011;37998;53.416;6.730;2022-08-11T10:20:27;3.17;;;1.17;;
51981;SDS011;37998;53.416;6.730;2022-08-11T10:22:56;1.92;;;1.40;;
51981;SDS011;37998;53.416;6.730;2022-08-11T10:25:42;5.45;;;1.27;;
51981;SDS011;37998;53.416;6.730;2022-08-11T10:28:26;4.90;;;1.77;;
51981;SDS011;37998;53.416;6.730;2022-08-11T10:30:53;3.03;;;1.80;;
51981;SDS011;37998;53.416;6.730;2022-08-11T10:33:55;6.97;;;1.30;;
51981;SDS011;37998;53.416;6.730;2022-08-11T10:36:29;9.07;;;1.30;;
51981;SDS011;37998;53.416;6.730;2022-08-11T10:38:57;4.03;;;1.45;;
51981;SDS011;37998;53.416;6.730;2022-08-11T10:41:25;3.58;;;1.48;;
51981;SDS011;37998;53.416;6.730;2022-08-11T10:44:11;1.77;;;1.30;;
51981;SDS011;37998;53.416;6.730;2022-08-11T10:46:37;2.67;;;1.50;;
51981;SDS011;37998;53.416;6.730;2022-08-11T10:49:24;3.65;;;1.67;;
51981;SDS011;37998;53.416;6.730;2022-08-11T10:51:50;2.65;;;1.10;;
51981;SDS011;37998;53.416;6.730;2022-08-11T10:54:39;5.88;;;1.50;;
51981;SDS011;37998;53.416;6.730;2022-08-11T10:57:25;3.08;;;1.30;;
51981;SDS011;37998;53.416;6.730;2022-08-11T11:00:12;2.65;;;1.40;;
51981;SDS011;37998;53.416;6.730;2022-08-11T11:02:40;2.15;;;1.30;;
51981;SDS011;37998;53.416;6.730;2022-08-11T11:05:18;1.92;;;1.58;;
51981;SDS011;37998;53.416;6.730;2022-08-11T11:07:51;3.20;;;1.40;;
51981;SDS011;37998;53.416;6.730;2022-08-11T11:10:21;4.13;;;1.25;;
51981;SDS011;37998;53.416;6.730;2022-08-11T11:12:50;2.95;;;1.38;;
51981;SDS011;37998;53.416;6.730;2022-08-11T11:15:37;2.22;;;1.13;;
51981;SDS011;37998;53.416;6.730;2022-08-11T11:18:28;2.15;;;1.40;;
51981;SDS011;37998;53.416;6.730;2022-08-11T11:21:12;2.20;;;1.23;;
51981;SDS011;37998;53.416;6.730;2022-08-11T11:23:46;2.20;;;1.48;;
51981;SDS011;37998;53.416;6.730;2022-08-11T11:37:04;2.20;;;1.50;;
51981;SDS011;37998;53.416;6.730;2022-08-11T11:39:31;3.28;;;1.50;;
51981;SDS011;37998;53.416;6.730;2022-08-11T11:42:02;6.60;;;1.75;;
51981;SDS011;37998;53.416;6.730;2022-08-11T11:44:29;4.57;;;1.67;;
51981;SDS011;37998;53.416;6.730;2022-08-11T11:46:56;6.68;;;2.08;;
51981;SDS011;37998;53.416;6.730;2022-08-11T11:49:25;8.98;;;4.95;;
51981;SDS011;37998;53.416;6.730;2022-08-11T11:51:53;5.28;;;1.60;;
51981;SDS011;37998;53.416;6.730;2022-08-11T11:54:21;7.88;;;1.65;;
51981;SDS011;37998;53.416;6.730;2022-08-11T11:56:49;5.45;;;1.65;;
51981;SDS011;37998;53.416;6.730;2022-08-11T11:59:20;5.07;;;1.98;;
51981;SDS011;37998;53.416;6.730;2022-08-11T12:02:09;7.22;;;1.45;;
51981;SDS011;37998;53.416;6.730;2022-08-11T12:04:41;3.30;;;1.42;;
51981;SDS011;37998;53.416;6.730;2022-08-11T12:07:09;5.55;;;1.42;;
51981;SDS011;37998;53.416;6.730;2022-08-11T12:09:54;5.45;;;1.42;;
51981;SDS011;37998;53.416;6.730;2022-08-11T12:12:22;3.60;;;1.60;;
51981;SDS011;37998;53.416;6.730;2022-08-11T12:15:08;2.60;;;1.60;;
51981;SDS011;37998;53.416;6.730;2022-08-11T12:20:26;4.13;;;1.40;;
51981;SDS011;37998;53.416;6.730;2022-08-11T12:22:53;8.95;;;1.83;;
51981;SDS011;37998;53.416;6.730;2022-08-11T12:25:39;4.80;;;1.92;;
51981;SDS011;37998;53.416;6.730;2022-08-11T12:28:24;4.93;;;1.58;;
51981;SDS011;37998;53.416;6.730;2022-08-11T12:30:51;9.65;;;2.13;;
51981;SDS011;37998;53.416;6.730;2022-08-11T12:33:17;2.40;;;1.60;;
51981;SDS011;37998;53.416;6.730;2022-08-11T12:35:45;4.15;;;1.90;;
51981;SDS011;37998;53.416;6.730;2022-08-11T12:38:13;3.80;;;1.95;;
51981;SDS011;37998;53.416;6.730;2022-08-11T12:40:40;2.92;;;1.83;;
51981;SDS011;37998;53.416;6.730;2022-08-11T12:43:26;4.30;;;1.90;;
51981;SDS011;37998;53.416;6.730;2022-08-11T12:49:13;6.53;;;2.33;;
51981;SDS011;37998;53.416;6.730;2022-08-11T12:52:01;7.93;;;2.83;;
51981;SDS011;37998;53.416;6.730;2022-08-11T13:00:19;6.20;;;2.33;;
51981;SDS011;37998;53.416;6.730;2022-08-11T13:03:05;3.50;;;2.10;;
51981;SDS011;37998;53.416;6.730;2022-08-11T13:05:54;4.97;;;1.95;;
51981;SDS011;37998;53.416;6.730;2022-08-11T13:08:22;10.15;;;2.05;;
51981;SDS011;37998;53.416;6.730;2022-08-11T13:10:50;5.85;;;2.05;;
51981;SDS011;37998;53.416;6.730;2022-08-11T13:13:37;3.38;;;1.73;;
51981;SDS011;37998;53.416;6.730;2022-08-11T13:16:06;3.42;;;1.70;;
51981;SDS011;37998;53.416;6.730;2022-08-11T13:18:33;3.70;;;1.80;;
51981;SDS011;37998;53.416;6.730;2022-08-11T13:20:59;4.38;;;1.60;;
51981;SDS011;37998;53.416;6.730;2022-08-11T13:23:26;2.63;;;1.55;;
51981;SDS011;37998;53.416;6.730;2022-08-11T13:25:53;2.97;;;1.45;;
51981;SDS011;37998;53.416;6.730;2022-08-11T13:28:20;5.28;;;1.40;;
51981;SDS011;37998;53.416;6.730;2022-08-11T13:30:50;1.60;;;1.50;;
51981;SDS011;37998;53.416;6.730;2022-08-11T13:33:35;6.90;;;1.98;;
51981;SDS011;37998;53.416;6.730;2022-08-11T13:36:17;3.33;;;1.65;;
51981;SDS011;37998;53.416;6.730;2022-08-11T13:38:45;4.97;;;1.30;;
51981;SDS011;37998;53.416;6.730;2022-08-11T13:41:12;3.03;;;1.50;;
51981;SDS011;37998;53.416;6.730;2022-08-11T13:43:57;3.70;;;1.23;;
51981;SDS011;37998;53.416;6.730;2022-08-11T13:46:23;2.05;;;1.30;;
51981;SDS011;37998;53.416;6.730;2022-08-11T13:48:51;3.40;;;1.40;;
51981;SDS011;37998;53.416;6.730;2022-08-11T13:51:20;4.28;;;1.45;;
51981;SDS011;37998;53.416;6.730;2022-08-11T13:54:00;4.65;;;1.42;;
51981;SDS011;37998;53.416;6.730;2022-08-11T13:56:28;1.65;;;1.20;;
51981;SDS011;37998;53.416;6.730;2022-08-11T13:58:55;7.65;;;1.90;;
51981;SDS011;37998;53.416;6.730;2022-08-11T14:01:23;4.00;;;1.45;;
51981;SDS011;37998;53.416;6.730;2022-08-11T14:03:53;2.42;;;1.33;;
51981;SDS011;37998;53.416;6.730;2022-08-11T14:06:20;3.78;;;1.30;;
51981;SDS011;37998;53.416;6.730;2022-08-11T14:08:47;5.57;;;1.50;;
51981;SDS011;37998;53.416;6.730;2022-08-11T14:11:17;2.20;;;1.63;;
51981;SDS011;37998;53.416;6.730;2022-08-11T14:14:02;6.32;;;1.65;;
51981;SDS011;37998;53.416;6.730;2022-08-11T14:16:31;3.35;;;1.50;;
51981;SDS011;37998;53.416;6.730;2022-08-11T14:19:02;3.13;;;1.33;;
51981;SDS011;37998;53.416;6.730;2022-08-11T14:21:30;2.85;;;1.40;;
51981;SDS011;37998;53.416;6.730;2022-08-11T14:24:18;1.75;;;1.50;;
51981;SDS011;37998;53.416;6.730;2022-08-11T14:26:45;2.60;;;1.20;;
51981;SDS011;37998;53.416;6.730;2022-08-11T14:29:14;3.70;;;1.25;;
51981;SDS011;37998;53.416;6.730;2022-08-11T14:31:46;2.05;;;1.38;;
51981;SDS011;37998;53.416;6.730;2022-08-11T14:34:26;6.57;;;1.60;;
51981;SDS011;37998;53.416;6.730;2022-08-11T14:36:59;3.35;;;1.38;;
51981;SDS011;37998;53.416;6.730;2022-08-11T14:39:31;2.55;;;1.42;;
51981;SDS011;37998;53.416;6.730;2022-08-11T14:42:01;2.28;;;1.50;;
51981;SDS011;37998;53.416;6.730;2022-08-11T14:44:47;2.17;;;1.58;;
51981;SDS011;37998;53.416;6.730;2022-08-11T14:47:38;6.93;;;1.80;;
51981;SDS011;37998;53.416;6.730;2022-08-11T14:50:05;5.07;;;1.65;;
51981;SDS011;37998;53.416;6.730;2022-08-11T14:52:36;3.97;;;1.65;;
51981;SDS011;37998;53.416;6.730;2022-08-11T14:55:03;2.78;;;1.58;;
51981;SDS011;37998;53.416;6.730;2022-08-11T14:57:48;2.40;;;1.40;;
51981;SDS011;37998;53.416;6.730;2022-08-11T15:00:15;4.13;;;1.55;;
51981;SDS011;37998;53.416;6.730;2022-08-11T15:02:42;13.70;;;1.98;;
51981;SDS011;37998;53.416;6.730;2022-08-11T15:05:30;5.57;;;2.00;;
51981;SDS011;37998;53.416;6.730;2022-08-11T15:07:56;4.43;;;1.58;;
51981;SDS011;37998;53.416;6.730;2022-08-11T15:10:23;4.63;;;1.92;;
51981;SDS011;37998;53.416;6.730;2022-08-11T15:12:49;3.75;;;2.15;;
51981;SDS011;37998;53.416;6.730;2022-08-11T15:15:15;2.20;;;1.40;;
51981;SDS011;37998;53.416;6.730;2022-08-11T15:18:02;5.38;;;1.90;;
51981;SDS011;37998;53.416;6.730;2022-08-11T15:20:30;3.65;;;1.70;;
51981;SDS011;37998;53.416;6.730;2022-08-11T15:23:15;4.55;;;1.67;;
51981;SDS011;37998;53.416;6.730;2022-08-11T15:26:04;2.05;;;1.70;;
51981;SDS011;37998;53.416;6.730;2022-08-11T15:28:35;4.30;;;1.70;;
51981;SDS011;37998;53.416;6.730;2022-08-11T15:31:23;3.42;;;1.80;;
51981;SDS011;37998;53.416;6.730;2022-08-11T15:34:11;3.35;;;2.10;;
51981;SDS011;37998;53.416;6.730;2022-08-11T15:37:01;2.42;;;1.70;;
51981;SDS011;37998;53.416;6.730;2022-08-11T15:39:55;3.05;;;1.67;;
51981;SDS011;37998;53.416;6.730;2022-08-11T15:42:54;4.38;;;1.63;;
51981;SDS011;37998;53.416;6.730;2022-08-11T15:45:43;3.40;;;1.40;;
51981;SDS011;37998;53.416;6.730;2022-08-11T15:48:26;2.58;;;1.80;;
51981;SDS011;37998;53.416;6.730;2022-08-11T15:50:56;2.95;;;1.60;;
51981;SDS011;37998;53.416;6.730;2022-08-11T15:53:40;2.28;;;1.50;;
51981;SDS011;37998;53.416;6.730;2022-08-11T15:56:10;2.95;;;2.35;;
51981;SDS011;37998;53.416;6.730;2022-08-11T15:58:41;2.53;;;1.48;;
51981;SDS011;37998;53.416;6.730;2022-08-11T16:01:28;3.25;;;1.90;;
51981;SDS011;37998;53.416;6.730;2022-08-11T16:04:15;8.32;;;2.00;;
51981;SDS011;37998;53.416;6.730;2022-08-11T16:09:31;1.77;;;1.50;;
51981;SDS011;37998;53.416;6.730;2022-08-11T16:12:02;3.70;;;1.95;;
51981;SDS011;37998;53.416;6.730;2022-08-11T16:14:32;4.07;;;1.55;;
51981;SDS011;37998;53.416;6.730;2022-08-11T16:17:19;5.38;;;1.65;;
51981;SDS011;37998;53.416;6.730;2022-08-11T16:19:49;4.25;;;1.70;;
51981;SDS011;37998;53.416;6.730;2022-08-11T16:22:20;7.07;;;1.80;;
51981;SDS011;37998;53.416;6.730;2022-08-11T16:25:17;3.40;;;1.60;;
51981;SDS011;37998;53.416;6.730;2022-08-11T16:27:48;4.88;;;2.08;;
51981;SDS011;37998;53.416;6.730;2022-08-11T16:30:16;3.88;;;1.77;;
51981;SDS011;37998;53.416;6.730;2022-08-11T16:32:43;2.00;;;1.52;;
51981;SDS011;37998;53.416;6.730;2022-08-11T16:35:15;4.10;;;1.60;;
51981;SDS011;37998;53.416;6.730;2022-08-11T16:38:01;2.05;;;1.50;;
51981;SDS011;37998;53.416;6.730;2022-08-11T16:40:47;2.20;;;1.80;;
51981;SDS011;37998;53.416;6.730;2022-08-11T16:43:16;8.20;;;2.55;;
51981;SDS011;37998;53.416;6.730;2022-08-11T16:46:04;6.38;;;2.17;;
51981;SDS011;37998;53.416;6.730;2022-08-11T16:48:49;3.22;;;1.75;;
51981;SDS011;37998;53.416;6.730;2022-08-11T16:51:17;3.53;;;1.95;;
51981;SDS011;37998;53.416;6.730;2022-08-11T16:53:45;6.05;;;2.30;;
51981;SDS011;37998;53.416;6.730;2022-08-11T16:56:17;3.33;;;1.80;;
51981;SDS011;37998;53.416;6.730;2022-08-11T16:58:46;5.80;;;1.90;;
51981;SDS011;37998;53.416;6.730;2022-08-11T17:01:38;3.17;;;2.00;;
51981;SDS011;37998;53.416;6.730;2022-08-11T17:07:19;2.10;;;1.77;;
51981;SDS011;37998;53.416;6.730;2022-08-11T17:10:05;5.72;;;1.88;;
51981;SDS011;37998;53.416;6.730;2022-08-11T17:12:53;4.93;;;1.92;;
51981;SDS011;37998;53.416;6.730;2022-08-11T17:15:40;4.25;;;1.77;;
51981;SDS011;37998;53.416;6.730;2022-08-11T17:18:28;4.47;;;1.85;;
51981;SDS011;37998;53.416;6.730;2022-08-11T17:21:05;4.47;;;1.98;;
51981;SDS011;37998;53.416;6.730;2022-08-11T17:23:35;6.78;;;1.80;;
51981;SDS011;37998;53.416;6.730;2022-08-11T17:26:27;3.72;;;1.77;;
51981;SDS011;37998;53.416;6.730;2022-08-11T17:29:19;5.20;;;2.10;;
51981;SDS011;37998;53.416;6.730;2022-08-11T17:32:05;5.20;;;1.85;;
51981;SDS011;37998;53.416;6.730;2022-08-11T17:34:54;6.65;;;2.13;;
51981;SDS011;37998;53.416;6.730;2022-08-11T17:37:41;2.92;;;1.85;;
51981;SDS011;37998;53.416;6.730;2022-08-11T17:40:10;6.63;;;1.80;;
51981;SDS011;37998;53.416;6.730;2022-08-11T17:42:39;5.15;;;2.13;;
51981;SDS011;37998;53.416;6.730;2022-08-11T17:45:26;2.00;;;1.70;;
51981;SDS011;37998;53.416;6.730;2022-08-11T17:48:11;4.60;;;2.15;;
51981;SDS011;37998;53.416;6.730;2022-08-11T17:50:50;3.08;;;1.73;;
51981;SDS011;37998;53.416;6.730;2022-08-11T17:53:40;2.97;;;2.15;;
51981;SDS011;37998;53.416;6.730;2022-08-11T17:56:26;11.95;;;1.80;;
51981;SDS011;37998;53.416;6.730;2022-08-11T17:59:13;4.35;;;1.45;;
51981;SDS011;37998;53.416;6.730;2022-08-11T18:01:59;5.75;;;2.00;;
51981;SDS011;37998;53.416;6.730;2022-08-11T18:04:48;6.72;;;1.40;;
51981;SDS011;37998;53.416;6.730;2022-08-11T18:07:15;6.85;;;2.25;;
51981;SDS011;37998;53.416;6.730;2022-08-11T18:10:02;3.20;;;1.80;;
51981;SDS011;37998;53.416;6.730;2022-08-11T18:12:49;6.57;;;1.90;;
51981;SDS011;37998;53.416;6.730;2022-08-11T18:15:39;5.80;;;1.80;;
51981;SDS011;37998;53.416;6.730;2022-08-11T18:18:25;4.97;;;2.05;;
51981;SDS011;37998;53.416;6.730;2022-08-11T18:21:11;2.92;;;1.77;;
51981;SDS011;37998;53.416;6.730;2022-08-11T18:23:59;4.13;;;2.03;;
51981;SDS011;37998;53.416;6.730;2022-08-11T18:26:46;2.80;;;1.70;;
51981;SDS011;37998;53.416;6.730;2022-08-11T18:29:32;7.35;;;1.88;;
51981;SDS011;37998;53.416;6.730;2022-08-11T18:32:18;3.80;;;2.10;;
51981;SDS011;37998;53.416;6.730;2022-08-11T18:35:04;4.15;;;2.05;;
51981;SDS011;37998;53.416;6.730;2022-08-11T18:37:52;4.97;;;1.80;;
51981;SDS011;37998;53.416;6.730;2022-08-11T18:40:41;6.45;;;2.00;;
51981;SDS011;37998;53.416;6.730;2022-08-11T18:43:28;6.50;;;1.67;;
51981;SDS011;37998;53.416;6.730;2022-08-11T18:46:16;8.98;;;1.92;;
51981;SDS011;37998;53.416;6.730;2022-08-11T18:49:05;8.65;;;1.95;;
51981;SDS011;37998;53.416;6.730;2022-08-11T18:51:58;5.68;;;2.05;;
51981;SDS011;37998;53.416;6.730;2022-08-11T18:54:44;4.47;;;2.38;;
51981;SDS011;37998;53.416;6.730;2022-08-11T18:57:32;6.03;;;2.70;;
51981;SDS011;37998;53.416;6.730;2022-08-11T19:00:21;9.98;;;5.45;;
51981;SDS011;37998;53.416;6.730;2022-08-11T19:03:09;4.60;;;2.45;;
51981;SDS011;37998;53.416;6.730;2022-08-11T19:05:56;4.97;;;3.50;;
51981;SDS011;37998;53.416;6.730;2022-08-11T19:08:45;14.95;;;2.97;;
51981;SDS011;37998;53.416;6.730;2022-08-11T19:11:35;11.15;;;6.60;;
51981;SDS011;37998;53.416;6.730;2022-08-11T19:14:21;12.68;;;8.13;;
51981;SDS011;37998;53.416;6.730;2022-08-11T19:17:08;9.52;;;5.20;;
51981;SDS011;37998;53.416;6.730;2022-08-11T19:19:54;9.27;;;4.40;;
51981;SDS011;37998;53.416;6.730;2022-08-11T19:22:41;8.38;;;4.63;;
51981;SDS011;37998;53.416;6.730;2022-08-11T19:25:27;7.47;;;3.47;;
51981;SDS011;37998;53.416;6.730;2022-08-11T19:28:14;8.00;;;3.03;;
51981;SDS011;37998;53.416;6.730;2022-08-11T19:31:00;13.88;;;3.42;;